Date,TemperatureHighF,TemperatureAvgF,TemperatureLowF,DewpointHighF,DewpointAvgF,DewpointLowF,HumidityHigh,HumidityAvg,HumidityLow,PressureMaxIn,PressureMinIn,WindSpeedMaxMPH,WindSpeedAvgMPH,GustSpeedMaxMPH,PrecipitationSumIn
2013-1-1,50.8,48.6,45.7,35.4,16.6,-14.6,58,31,1,29.51,29.36,0,0,0,0.01
2013-1-2,54.9,51.8,50.0,8.4,-2.1,-4.5,16,4,1,29.50,29.40,0,0,0,0.02
2013-1-3,50.4,46.0,41.2,18.1,-4.7,-11.2,28,6,1,29.64,29.52,0,0,0,0.00
2013-1-4,54.4,47.3,38.9,35.3,27.6,19.4,58,47,32,29.70,29.58,0,0,0,0.01
2013-1-5,49.0,41.6,31.1,32.3,16.9,-25.4,60,40,1,29.75,29.59,0,0,0,0.01
2013-1-6,58.5,48.2,42.8,41.4,14.2,-17.0,59,29,1,29.60,29.40,0,0,0,0.00
2013-1-7,54.9,43.2,33.3,33.2,7.7,-19.4,57,24,1,29.76,29.57,0,0,0,0.00
2013-1-8,52.9,46.2,33.3,36.6,17.2,-17.4,55,34,1,29.76,29.69,0,0,0,0.00
2013-1-9,65.2,56.2,50.6,28.0,8.3,-3.6,41,13,1,29.80,29.72,0,0,0,0.00
2013-1-10,68.8,64.0,58.1,48.2,27.9,1.6,48,27,1,29.75,29.68,0,0,0,0.01
2013-1-11,58.0,57.8,57.6,1.6,1.5,1.4,1,1,1,29.69,29.68,0,0,0,0.00
2013-1-20,0.0,0.0,0.0,0.0,0.0,0.0,51,51,51,29.53,29.53,0,0,0,0.00
2013-9-8,88.2,81.4,74.9,72.9,70.5,68.1,85,70,53,29.39,29.33,0,0,0,0.81
2013-9-9,87.7,78.3,69.5,74.5,69.7,65.7,90,76,53,29.53,29.39,0,0,0,0.00
2013-9-10,89.3,78.3,70.0,74.3,70.1,66.2,90,77,54,29.63,29.52,0,0,0,0.00
2013-9-11,89.5,78.7,68.9,72.9,69.5,65.9,91,75,50,29.61,29.48,0,0,0,0.00
2013-9-12,89.5,76.2,71.8,74.2,70.3,67.5,92,83,57,29.49,29.27,0,0,0,0.02
2013-9-13,86.8,76.6,68.2,70.5,63.7,53.9,90,67,36,29.28,29.18,0,0,0,0.00
2013-9-14,78.3,68.8,59.6,62.8,57.8,52.4,87,69,48,29.49,29.28,0,0,0,0.00
2013-9-15,82.4,71.6,64.3,68.7,62.6,58.7,84,74,55,29.59,29.49,0,0,0,0.00
2013-9-16,87.1,75.7,66.4,70.4,66.5,63.1,91,74,49,29.53,29.43,0,0,0,0.00
2013-9-17,75.1,70.9,68.0,66.4,60.0,54.7,77,69,58,29.68,29.52,0,0,0,0.00
2013-9-18,75.1,69.4,64.4,62.7,59.2,55.3,84,70,60,29.66,29.54,0,0,0,0.00
2013-9-19,81.7,69.2,63.2,66.8,62.5,59.8,90,80,58,29.57,29.50,0,0,0,0.00
2013-9-25,82.4,65.8,64.4,67.2,62.4,56.7,92,89,54,29.49,29.11,0,0,0,0.53
2013-9-26,65.0,64.5,63.9,61.9,61.2,60.4,90,89,88,29.29,29.27,0,0,0,0.00
2014-1-1,42.3,42.0,41.4,37.2,36.5,35.9,83,81,79,29.55,29.50,2,1,3,0.00
2014-1-2,48.1,43.1,31.1,45.7,36.9,15.7,93,79,52,29.51,29.05,22,4,22,0.00